createdAt,value
2018-11-04T00:00:00.000Z,99415
2018-11-04T00:05:00.000Z,99399
2018-11-04T00:10:00.000Z,99393
2018-11-04T00:15:00.000Z,99394
2018-11-04T00:20:00.000Z,99402
2018-11-04T00:25:00.000Z,99396
2018-11-04T00:30:00.000Z,99387
2018-11-04T00:35:00.000Z,99378
2018-11-04T00:40:00.000Z,99387
2018-11-04T00:45:00.000Z,99379
2018-11-04T00:50:00.000Z,99375
2018-11-04T00:55:00.000Z,99359
2018-11-04T01:00:00.000Z,99353
2018-11-04T01:05:00.000Z,99350
2018-11-04T01:10:00.000Z,99357
2018-11-04T01:15:00.000Z,99345
2018-11-04T01:20:00.000Z,99351
2018-11-04T01:25:00.000Z,99350
2018-11-04T01:30:00.000Z,99341
2018-11-04T01:35:00.000Z,99330
2018-11-04T01:40:00.000Z,99335
2018-11-04T01:45:00.000Z,99315
2018-11-04T01:50:00.000Z,99302
2018-11-04T01:55:00.000Z,99296
2018-11-04T02:00:00.000Z,99291
2018-11-04T02:05:00.000Z,99289
2018-11-04T02:10:00.000Z,99279
2018-11-04T02:15:00.000Z,99288
2018-11-04T02:20:00.000Z,99291
2018-11-04T02:25:00.000Z,99291
2018-11-04T02:30:00.000Z,99285
2018-11-04T02:35:00.000Z,99286
2018-11-04T02:40:00.000Z,99276
2018-11-04T02:45:00.000Z,99281
2018-11-04T02:50:00.000Z,99268
2018-11-04T02:55:00.000Z,99264
2018-11-04T03:00:00.000Z,99268
2018-11-04T03:05:00.000Z,99262
2018-11-04T03:10:00.000Z,99261
2018-11-04T03:15:00.000Z,99255
2018-11-04T03:20:00.000Z,99259
2018-11-04T03:25:00.000Z,99241
2018-11-04T03:30:00.000Z,99251
2018-11-04T03:35:00.000Z,99254
2018-11-04T03:40:00.000Z,99258
2018-11-04T03:45:00.000Z,99247
2018-11-04T03:50:00.000Z,99253
2018-11-04T03:55:00.000Z,99246
2018-11-04T04:00:00.000Z,99242
2018-11-04T04:05:00.000Z,99236
2018-11-04T04:11:00.000Z,99233
2018-11-04T04:16:00.000Z,99228
2018-11-04T04:21:00.000Z,99234
2018-11-04T04:26:00.000Z,99235
2018-11-04T04:31:00.000Z,99226
2018-11-04T04:36:00.000Z,99215
2018-11-04T04:41:00.000Z,99216
2018-11-04T04:46:00.000Z,99217
2018-11-04T04:51:00.000Z,99203
2018-11-04T04:56:00.000Z,99205
2018-11-04T05:01:00.000Z,99198
2018-11-04T05:06:00.000Z,99185
2018-11-04T05:11:00.000Z,99186
2018-11-04T05:16:00.000Z,99193
2018-11-04T05:21:00.000Z,99196
2018-11-04T05:26:00.000Z,99192
2018-11-04T05:31:00.000Z,99203
2018-11-04T05:36:00.000Z,99198
2018-11-04T05:41:00.000Z,99193
2018-11-04T05:46:00.000Z,99198
2018-11-04T05:51:00.000Z,99205
2018-11-04T05:56:00.000Z,99197
2018-11-04T06:01:00.000Z,99208
2018-11-04T06:06:00.000Z,99219
2018-11-04T06:11:00.000Z,99223
2018-11-04T06:16:00.000Z,99215
2018-11-04T06:21:00.000Z,99228
2018-11-04T06:26:00.000Z,99222
2018-11-04T06:31:00.000Z,99223
2018-11-04T06:36:00.000Z,99230
2018-11-04T06:41:00.000Z,99215
2018-11-04T06:46:00.000Z,99210
2018-11-04T06:51:00.000Z,99210
2018-11-04T06:56:00.000Z,99207
2018-11-04T07:01:00.000Z,99208
2018-11-04T07:06:00.000Z,99216
2018-11-04T07:11:00.000Z,99221
2018-11-04T07:16:00.000Z,99214
2018-11-04T07:21:00.000Z,99226
2018-11-04T07:26:00.000Z,99205
2018-11-04T07:31:00.000Z,99213
2018-11-04T07:36:00.000Z,99208
2018-11-04T07:41:00.000Z,99214
2018-11-04T07:46:00.000Z,99203
2018-11-04T07:51:00.000Z,99203
2018-11-04T07:56:00.000Z,99205
2018-11-04T08:01:00.000Z,99207
2018-11-04T08:06:00.000Z,99192
2018-11-04T08:11:00.000Z,99198
2018-11-04T08:16:00.000Z,99193
2018-11-04T08:21:00.000Z,99194
2018-11-04T08:26:00.000Z,99178
2018-11-04T08:31:00.000Z,99185
2018-11-04T08:36:00.000Z,99191
2018-11-04T08:41:00.000Z,99172
2018-11-04T08:46:00.000Z,99170
2018-11-04T08:51:00.000Z,99166
2018-11-04T08:56:00.000Z,99155
2018-11-04T09:01:00.000Z,99164
2018-11-04T09:06:00.000Z,99179
2018-11-04T09:11:00.000Z,99175
2018-11-04T09:16:00.000Z,99158
2018-11-04T09:21:00.000Z,99163
2018-11-04T09:26:00.000Z,99172
2018-11-04T09:31:00.000Z,99170
2018-11-04T09:36:00.000Z,99165
2018-11-04T09:41:00.000Z,99156
2018-11-04T09:46:00.000Z,99155
2018-11-04T09:51:00.000Z,99150
2018-11-04T09:56:00.000Z,99154
2018-11-04T10:01:00.000Z,99154
2018-11-04T10:07:00.000Z,99151
2018-11-04T10:12:00.000Z,99153
2018-11-04T10:17:00.000Z,99141
2018-11-04T10:22:00.000Z,99141
2018-11-04T10:27:00.000Z,99125
2018-11-04T10:32:00.000Z,99122
2018-11-04T10:37:00.000Z,99118
2018-11-04T10:42:00.000Z,99112
2018-11-04T10:47:00.000Z,99118
2018-11-04T10:52:00.000Z,99113
2018-11-04T10:57:00.000Z,99106
2018-11-04T11:02:00.000Z,99102
2018-11-04T11:07:00.000Z,99105
2018-11-04T11:12:00.000Z,99096
2018-11-04T11:17:00.000Z,99089
2018-11-04T11:22:00.000Z,99089
2018-11-04T11:27:00.000Z,99081
2018-11-04T11:32:00.000Z,99080
2018-11-04T11:37:00.000Z,99070
2018-11-04T11:42:00.000Z,99069
2018-11-04T11:47:00.000Z,99068
2018-11-04T11:52:00.000Z,99061
2018-11-04T11:57:00.000Z,99064
2018-11-04T12:02:00.000Z,99053
2018-11-04T12:07:00.000Z,99060
2018-11-04T12:12:00.000Z,99054
2018-11-04T12:17:00.000Z,99057
2018-11-04T12:22:00.000Z,99052
2018-11-04T12:27:00.000Z,99054
2018-11-04T12:32:00.000Z,99045
2018-11-04T12:37:00.000Z,99038
2018-11-04T12:42:00.000Z,99041
2018-11-04T12:47:00.000Z,99033
2018-11-04T12:52:00.000Z,99030
2018-11-04T12:57:00.000Z,99029
2018-11-04T13:02:00.000Z,99024
2018-11-04T13:07:00.000Z,99026
2018-11-04T13:12:00.000Z,99028
2018-11-04T13:17:00.000Z,99021
2018-11-04T13:22:00.000Z,99015
2018-11-04T13:27:00.000Z,99013
2018-11-04T13:32:00.000Z,99003
2018-11-04T13:37:00.000Z,99004
2018-11-04T13:42:00.000Z,98993
2018-11-04T13:47:00.000Z,98994
2018-11-04T13:52:00.000Z,98989
2018-11-04T13:57:00.000Z,99004
2018-11-04T14:02:00.000Z,98992
2018-11-04T14:07:00.000Z,98991
2018-11-04T14:12:00.000Z,98992
2018-11-04T14:17:00.000Z,98978
2018-11-04T14:22:00.000Z,98980
2018-11-04T14:27:00.000Z,98981
2018-11-04T14:32:00.000Z,98983
2018-11-04T14:37:00.000Z,98981
2018-11-04T14:42:00.000Z,98972
2018-11-04T14:47:00.000Z,98972
2018-11-04T14:52:00.000Z,98979
2018-11-04T14:57:00.000Z,98968
2018-11-04T15:02:00.000Z,98967
2018-11-04T15:07:00.000Z,98973
2018-11-04T15:12:00.000Z,98965
2018-11-04T15:17:00.000Z,98965
2018-11-04T15:22:00.000Z,98973
2018-11-04T15:27:00.000Z,98968
2018-11-04T15:32:00.000Z,98968
2018-11-04T15:37:00.000Z,98966
2018-11-04T15:42:00.000Z,98977
2018-11-04T15:47:00.000Z,98982
2018-11-04T15:53:00.000Z,98976
2018-11-04T15:58:00.000Z,98976
2018-11-04T16:03:00.000Z,98973
2018-11-04T16:08:00.000Z,98983
2018-11-04T16:13:00.000Z,98973
2018-11-04T16:18:00.000Z,98970
2018-11-04T16:23:00.000Z,98976
2018-11-04T16:28:00.000Z,98982
2018-11-04T16:33:00.000Z,98981
2018-11-04T16:38:00.000Z,98975
2018-11-04T16:43:00.000Z,98990
2018-11-04T16:48:00.000Z,98982
2018-11-04T16:53:00.000Z,98986
2018-11-04T16:58:00.000Z,98991
2018-11-04T17:03:00.000Z,98988
2018-11-04T17:08:00.000Z,98991
2018-11-04T17:13:00.000Z,98987
2018-11-04T17:18:00.000Z,98985
2018-11-04T17:23:00.000Z,98988
2018-11-04T17:28:00.000Z,98990
2018-11-04T17:33:00.000Z,98979
2018-11-04T17:38:00.000Z,98974
2018-11-04T17:43:00.000Z,98976
2018-11-04T17:48:00.000Z,98968
2018-11-04T17:53:00.000Z,98971
2018-11-04T17:58:00.000Z,98968
2018-11-04T18:03:00.000Z,98975
2018-11-04T18:08:00.000Z,98962
2018-11-04T18:13:00.000Z,98970
2018-11-04T18:18:00.000Z,98971
2018-11-04T18:23:00.000Z,98968
2018-11-04T18:28:00.000Z,98973
2018-11-04T18:33:00.000Z,98973
2018-11-04T18:38:00.000Z,98982
2018-11-04T18:43:00.000Z,98970
2018-11-04T18:48:00.000Z,98970
2018-11-04T18:53:00.000Z,98968
2018-11-04T18:58:00.000Z,98968
2018-11-04T19:03:00.000Z,98980
2018-11-04T19:08:00.000Z,98975
2018-11-04T19:13:00.000Z,98972
2018-11-04T19:18:00.000Z,98983
2018-11-04T19:23:00.000Z,98969
2018-11-04T19:28:00.000Z,98966
2018-11-04T19:33:00.000Z,98972
2018-11-04T19:38:00.000Z,98984
2018-11-04T19:43:00.000Z,98984
2018-11-04T19:48:00.000Z,98983
2018-11-04T19:53:00.000Z,98984
2018-11-04T19:58:00.000Z,98994
2018-11-04T20:03:00.000Z,98996
2018-11-04T20:08:00.000Z,98997
2018-11-04T20:13:00.000Z,99004
2018-11-04T20:18:00.000Z,99002
2018-11-04T20:23:00.000Z,98990
2018-11-04T20:28:00.000Z,98993
2018-11-04T20:33:00.000Z,98994
2018-11-04T20:38:00.000Z,98997
2018-11-04T20:43:00.000Z,98997
2018-11-04T20:49:00.000Z,98995
2018-11-04T20:54:00.000Z,98999
2018-11-04T20:59:00.000Z,99002
2018-11-04T21:04:00.000Z,98994
2018-11-04T21:09:00.000Z,99001
2018-11-04T21:14:00.000Z,98982
2018-11-04T21:19:00.000Z,98982
2018-11-04T21:24:00.000Z,98986
2018-11-04T21:29:00.000Z,98983
2018-11-04T21:34:00.000Z,98988
2018-11-04T21:39:00.000Z,98973
2018-11-04T21:44:00.000Z,98971
2018-11-04T21:49:00.000Z,98970
2018-11-04T21:54:00.000Z,98971
2018-11-04T21:59:00.000Z,98978
2018-11-04T22:04:00.000Z,98966
2018-11-04T22:09:00.000Z,98963
2018-11-04T22:14:00.000Z,98964
2018-11-04T22:19:00.000Z,98963
2018-11-04T22:24:00.000Z,98959
2018-11-04T22:29:00.000Z,98950
2018-11-04T22:34:00.000Z,98950
2018-11-04T22:39:00.000Z,98959
2018-11-04T22:44:00.000Z,98954
2018-11-04T22:49:00.000Z,98959
2018-11-04T22:54:00.000Z,98966
2018-11-04T22:59:00.000Z,98959
2018-11-04T23:04:00.000Z,98976
2018-11-04T23:09:00.000Z,98967
2018-11-04T23:14:00.000Z,98980
2018-11-04T23:19:00.000Z,98965
2018-11-04T23:24:00.000Z,98962
2018-11-04T23:29:00.000Z,98964
2018-11-04T23:34:00.000Z,98966
2018-11-04T23:39:00.000Z,98979
2018-11-04T23:44:00.000Z,98964
2018-11-04T23:49:00.000Z,98959
2018-11-04T23:54:00.000Z,98960
2018-11-04T23:59:00.000Z,98966
